Ponte Vedra Beach, Florida
Current Conditions -  °F | °C
As of 4:53 AM on Wednesday 26 Nov 2014 (Local Time) from KCRG Reporting Station
Light Rain Light Rain  
Wind Chill: 51°   Ceiling: 900
Heat Index: 51°   Visibility: 7mi
Dew Point: 49°   Wind: 16mph
Humidity: 92%   Direction: 300°WNW
Pressure: 29.94"   Gusts: NA
Location:  30.24°N, 81.39°W
Report Text: KCRG 260953Z AUTO 30014KT 7SM -RA OVC009 11/09 A2994 RMK AO2 RAB48 CIG 006V014 SLP136 P0000 T01060094
Loading
Personal Weather Stations






























Interactive Weather Map New forecast layout! Learn more

10-Day Weather Forecast

Advertisements
Track Severe Weather on mobile